Time;durP1;ratioP1;P1;durP2;ratioP2;P2;SDS_P1;SDS_P2;PMS_P1;PMS_P2;Temp;Humidity;BMP_temperature;BMP_pressure;BME280_temperature;BME280_humidity;BME280_pressure;Samples;Min_cycle;Max_cycle;Signal;HPM_P1;HPM_P2
2023/03/03 00:02:14;;;;;;;22.37;17.00;;;;;;;0.89;100.00;102414.31;5090524;28;20484;-35
2023/03/03 00:04:40;;;;;;;23.67;17.10;;;;;;;1.00;100.00;102439.06;5090388;28;20024;-35
2023/03/03 00:07:05;;;;;;;24.13;16.87;;;;;;;1.01;100.00;102440.75;5090042;28;20024;-35
2023/03/03 00:09:31;;;;;;;21.30;15.87;;;;;;;1.03;100.00;102427.31;5090003;28;20063;-35
2023/03/03 00:11:59;;;;;;;20.10;16.00;;;;;;;1.05;100.00;102452.00;5089550;28;20036;-35
2023/03/03 00:14:30;;;;;;;20.02;15.38;;;;;;;1.11;100.00;102453.28;5075891;28;20032;-35
2023/03/03 00:16:59;;;;;;;20.17;15.60;;;;;;;1.13;100.00;102454.88;5076276;28;20028;-35
2023/03/03 00:19:25;;;;;;;22.02;16.05;;;;;;;1.22;100.00;102453.22;5076624;28;20338;-35
2023/03/03 00:21:51;;;;;;;23.60;17.20;;;;;;;1.16;100.00;102445.75;5076364;28;20030;-35
2023/03/03 00:24:23;;;;;;;24.27;17.50;;;;;;;1.16;100.00;102459.06;5076471;28;20029;-35
2023/03/03 00:26:56;;;;;;;24.33;16.92;;;;;;;1.18;100.00;102457.16;5076369;28;20093;-35
2023/03/03 00:29:36;;;;;;;20.85;16.27;;;;;;;1.15;100.00;102436.06;5076629;28;20032;-35
2023/03/03 00:32:23;;;;;;;22.92;16.73;;;;;;;1.26;100.00;102447.50;5076097;28;20028;-35
2023/03/03 00:34:50;;;;;;;21.50;15.45;;;;;;;1.29;100.00;102449.06;5066034;28;20469;-35
2023/03/03 00:37:18;;;;;;;21.35;16.40;;;;;;;1.24;100.00;102452.13;5076006;28;20028;-35
2023/03/03 00:39:43;;;;;;;21.10;15.43;;;;;;;1.18;100.00;102452.66;5075900;28;20029;-35
2023/03/03 00:42:16;;;;;;;21.30;16.33;;;;;;;1.16;100.00;102451.09;5075543;28;20032;-35
2023/03/03 00:44:44;;;;;;;21.88;17.00;;;;;;;1.03;100.00;102462.78;5076688;28;20090;-35
2023/03/03 00:47:28;;;;;;;22.20;16.52;;;;;;;1.00;100.00;102451.53;5075777;28;20032;-35
2023/03/03 00:50:27;;;;;;;21.45;15.25;;;;;;;0.94;100.00;102460.06;5076129;28;20062;-35
2023/03/03 00:53:00;;;;;;;22.83;16.30;;;;;;;0.89;100.00;102446.28;5076251;28;20025;-35
2023/03/03 00:55:26;;;;;;;21.83;15.70;;;;;;;0.86;100.00;102443.84;5075663;28;20027;-35
2023/03/03 00:57:51;;;;;;;22.45;16.75;;;;;;;0.66;100.00;102419.75;5075831;28;20029;-35
2023/03/03 01:00:17;;;;;;;21.33;15.50;;;;;;;0.91;100.00;102465.63;5075316;28;20016;-35
2023/03/03 01:02:45;;;;;;;22.80;16.30;;;;;;;0.90;100.00;102464.78;5075831;28;20161;-35
2023/03/03 01:05:12;;;;;;;19.58;14.52;;;;;;;0.95;100.00;102461.75;5075453;28;20032;-35
2023/03/03 01:07:37;;;;;;;22.02;15.95;;;;;;;0.87;100.00;102466.84;5075076;28;20056;-35
2023/03/03 01:10:03;;;;;;;22.17;14.87;;;;;;;0.85;100.00;102463.47;5076184;28;20052;-35
2023/03/03 01:12:28;;;;;;;22.27;16.42;;;;;;;0.86;100.00;102468.66;5075311;28;20036;-35
2023/03/03 01:14:54;;;;;;;21.23;16.50;;;;;;;0.94;100.00;102473.38;5075620;28;20492;-35
2023/03/03 01:17:19;;;;;;;22.50;16.73;;;;;;;0.76;100.00;102447.28;5075405;28;20032;-35
2023/03/03 01:19:45;;;;;;;24.03;16.40;;;;;;;0.95;100.00;102467.91;5075488;28;20033;-35
2023/03/03 01:22:10;;;;;;;24.37;18.03;;;;;;;0.81;100.00;102473.53;5074831;28;20349;-35
2023/03/03 01:24:35;;;;;;;21.70;15.77;;;;;;;0.87;100.00;102475.69;5074895;28;20050;-35
2023/03/03 01:27:01;;;;;;;20.53;14.90;;;;;;;0.93;100.00;102471.69;5075281;28;20032;-35
2023/03/03 01:29:26;;;;;;;23.53;16.13;;;;;;;0.88;100.00;102468.53;5074988;28;20064;-35
2023/03/03 01:31:51;;;;;;;21.23;15.87;;;;;;;0.95;100.00;102472.41;5075734;28;20043;-35
2023/03/03 01:34:17;;;;;;;23.07;14.67;;;;;;;0.97;100.00;102484.59;5075275;28;20449;-35
2023/03/03 01:36:42;;;;;;;20.93;15.10;;;;;;;0.93;100.00;102469.88;5074889;28;20452;-35
2023/03/03 01:39:10;;;;;;;21.60;15.70;;;;;;;1.00;100.00;102486.16;5074788;28;20360;-35
2023/03/03 01:41:35;;;;;;;21.65;15.68;;;;;;;0.94;100.00;102471.56;5074827;28;20031;-35
2023/03/03 01:44:01;;;;;;;22.53;16.27;;;;;;;1.06;100.00;102477.66;5074479;28;20028;-35
2023/03/03 01:46:40;;;;;;;22.33;16.08;;;;;;;1.13;100.00;102484.19;5074729;28;20292;-35
2023/03/03 01:49:12;;;;;;;21.65;15.65;;;;;;;1.12;100.00;102482.47;5075148;28;20024;-35
2023/03/03 01:51:51;;;;;;;19.85;15.27;;;;;;;1.11;100.00;102480.78;5074846;28;20024;-35
2023/03/03 01:54:41;;;;;;;20.33;15.38;;;;;;;1.00;100.00;102478.19;5074757;28;20032;-35
2023/03/03 01:57:15;;;;;;;22.67;16.20;;;;;;;0.91;100.00;102492.25;5075277;28;20123;-35
2023/03/03 01:59:48;;;;;;;20.10;15.02;;;;;;;0.83;100.00;102486.72;5074146;28;20090;-35
2023/03/03 02:02:13;;;;;;;23.70;15.88;;;;;;;0.80;100.00;102474.53;5074492;28;20046;-35
2023/03/03 02:04:39;;;;;;;20.43;15.33;;;;;;;0.81;100.00;102483.34;5074324;28;20099;-35
2023/03/03 02:07:09;;;;;;;22.23;16.23;;;;;;;0.79;100.00;102477.31;5073911;28;20062;-35
2023/03/03 02:09:51;;;;;;;21.55;16.35;;;;;;;0.71;100.00;102486.75;5074143;28;20020;-35
2023/03/03 02:12:19;;;;;;;25.02;17.08;;;;;;;0.83;100.00;102494.72;5074156;28;20457;-35
2023/03/03 02:14:45;;;;;;;22.77;16.35;;;;;;;0.88;100.00;102488.06;5074084;28;20070;-35
2023/03/03 02:17:11;;;;;;;26.30;19.33;;;;;;;0.84;100.00;102489.28;5074043;28;20021;-35
2023/03/03 02:20:04;;;;;;;22.83;16.20;;;;;;;0.88;100.00;102487.19;5074507;28;20330;-35
2023/03/03 02:22:48;;;;;;;21.38;15.80;;;;;;;0.89;100.00;102489.75;5074243;28;20016;-35
2023/03/03 02:25:24;;;;;;;23.15;16.90;;;;;;;0.75;100.00;102488.22;5074770;28;20021;-35
2023/03/03 02:27:49;;;;;;;22.25;16.23;;;;;;;0.75;100.00;102485.53;5074510;28;20078;-35
2023/03/03 02:30:20;;;;;;;21.97;15.53;;;;;;;0.76;100.00;102492.56;5074435;28;20028;-35
2023/03/03 02:32:45;;;;;;;21.92;15.93;;;;;;;0.60;100.00;102491.28;5074146;28;20316;-35
2023/03/03 02:35:32;;;;;;;22.57;16.27;;;;;;;0.59;100.00;102487.78;5073585;28;20452;-35
2023/03/03 02:38:28;;;;;;;22.00;15.50;;;;;;;0.49;100.00;102487.69;5073813;28;20036;-35
2023/03/03 02:41:14;;;;;;;22.33;16.27;;;;;;;0.21;100.00;102454.47;5074506;28;20073;-35
2023/03/03 02:43:50;;;;;;;23.00;15.73;;;;;;;0.34;100.00;102493.38;5074028;28;20448;-35
2023/03/03 02:46:15;;;;;;;23.25;16.10;;;;;;;0.38;100.00;102490.38;5073752;28;20099;-35
2023/03/03 02:48:40;;;;;;;21.53;16.53;;;;;;;0.35;100.00;102487.97;5073882;28;20063;-35
2023/03/03 02:51:06;;;;;;;21.67;16.13;;;;;;;0.41;100.00;102486.63;5073677;28;20474;-35
2023/03/03 02:53:31;;;;;;;22.10;16.13;;;;;;;0.37;100.00;102477.19;5073628;28;20028;-35
2023/03/03 02:55:57;;;;;;;23.00;16.93;;;;;;;0.18;100.00;102457.38;5074194;28;20024;-35
2023/03/03 02:58:22;;;;;;;22.47;16.07;;;;;;;0.29;100.00;102463.66;5073581;28;20558;-35
2023/03/03 03:00:47;;;;;;;20.60;15.30;;;;;;;0.44;100.00;102483.69;5073812;28;20059;-35
2023/03/03 03:03:13;;;;;;;23.13;16.23;;;;;;;0.39;100.00;102484.09;5073961;28;20456;-35
2023/03/03 03:05:39;;;;;;;21.75;16.33;;;;;;;0.43;100.00;102479.34;5073577;28;20356;-36
2023/03/03 03:08:04;;;;;;;21.55;15.10;;;;;;;0.49;100.00;102489.50;5073552;28;20024;-35
2023/03/03 03:10:30;;;;;;;21.60;15.87;;;;;;;0.51;100.00;102492.88;5073498;28;20024;-35
2023/03/03 03:12:55;;;;;;;19.47;14.87;;;;;;;0.61;100.00;102490.31;5073185;28;20028;-35
2023/03/03 03:15:20;;;;;;;21.67;15.00;;;;;;;0.52;100.00;102482.09;5073728;28;20091;-40
2023/03/03 03:17:46;;;;;;;21.87;15.67;;;;;;;0.65;100.00;102489.09;5073157;28;20047;-35
2023/03/03 03:20:11;;;;;;;21.70;14.55;;;;;;;0.63;100.00;102489.19;5073669;28;20086;-35
2023/03/03 03:22:37;;;;;;;22.30;16.48;;;;;;;0.59;100.00;102503.75;5072970;28;20013;-39
2023/03/03 03:25:02;;;;;;;22.10;15.37;;;;;;;0.55;100.00;102506.78;5073688;28;20017;-35
2023/03/03 03:27:28;;;;;;;22.65;15.65;;;;;;;0.49;100.00;102497.50;5073347;28;20082;-35
2023/03/03 03:29:53;;;;;;;20.77;15.23;;;;;;;0.58;100.00;102506.53;5073355;28;20020;-35
2023/03/03 03:32:19;;;;;;;24.70;17.67;;;;;;;0.30;100.00;102471.53;5073438;28;20031;-35
2023/03/03 03:34:44;;;;;;;23.65;16.48;;;;;;;0.45;100.00;102504.03;5073508;28;20017;-35
2023/03/03 03:37:10;;;;;;;22.67;15.47;;;;;;;0.43;100.00;102503.31;5071943;28;20052;-35
2023/03/03 03:39:35;;;;;;;22.17;16.07;;;;;;;0.46;100.00;102506.56;5073272;28;20020;-35
2023/03/03 03:42:01;;;;;;;22.02;15.50;;;;;;;0.37;100.00;102490.50;5073057;28;20020;-35
2023/03/03 03:44:26;;;;;;;22.80;16.20;;;;;;;0.41;100.00;102506.09;5074021;28;20024;-35
2023/03/03 03:46:52;;;;;;;24.45;17.80;;;;;;;0.28;100.00;102507.19;5073315;28;20074;-35
2023/03/03 03:49:17;;;;;;;22.17;16.40;;;;;;;0.18;100.00;102483.16;5075942;28;20067;-35
2023/03/03 03:51:42;;;;;;;20.40;14.60;;;;;;;0.39;100.00;102502.72;5076729;28;20025;-35
2023/03/03 03:54:08;;;;;;;20.80;14.47;;;;;;;0.41;100.00;102500.78;5077143;28;20027;-35
2023/03/03 03:56:33;;;;;;;20.40;15.17;;;;;;;0.50;100.00;102504.50;5077222;28;20023;-35
2023/03/03 03:58:59;;;;;;;21.88;15.77;;;;;;;0.46;100.00;102500.41;5076718;28;20060;-35
2023/03/03 04:01:25;;;;;;;21.23;15.63;;;;;;;0.47;100.00;102512.72;5076350;28;20023;-36
2023/03/03 04:03:51;;;;;;;21.77;16.10;;;;;;;0.42;100.00;102504.28;5076942;28;20028;-36
2023/03/03 04:06:17;;;;;;;21.40;14.68;;;;;;;0.48;100.00;102499.28;5076893;28;20027;-36
2023/03/03 04:08:42;;;;;;;25.65;17.98;;;;;;;0.40;100.00;102515.06;5076517;28;20016;-36
2023/03/03 04:11:08;;;;;;;21.03;15.43;;;;;;;0.47;100.00;102518.06;5077371;28;20048;-36
2023/03/03 04:13:34;;;;;;;22.13;15.97;;;;;;;0.22;100.00;102485.44;5076172;28;20141;-36
2023/03/03 04:16:00;;;;;;;18.90;13.43;;;;;;;0.47;100.00;102505.59;5076963;28;20537;-36
2023/03/03 04:18:25;;;;;;;21.10;14.13;;;;;;;0.46;100.00;102513.72;5076316;28;20082;-36
2023/03/03 04:20:53;;;;;;;21.17;14.83;;;;;;;0.41;100.00;102497.28;5076811;28;20024;-36
2023/03/03 04:23:18;;;;;;;17.38;13.45;;;;;;;0.47;100.00;102518.06;5076448;28;20275;-36
2023/03/03 04:25:45;;;;;;;19.40;13.80;;;;;;;0.38;100.00;102500.16;5076039;28;20513;-36
2023/03/03 04:28:11;;;;;;;19.83;14.48;;;;;;;0.49;100.00;102509.00;5075892;28;20540;-36
2023/03/03 04:30:36;;;;;;;18.50;14.07;;;;;;;0.55;100.00;102512.97;5076141;28;20111;-36
2023/03/03 04:33:02;;;;;;;20.40;14.23;;;;;;;0.55;100.00;102509.47;5076334;28;20108;-36
2023/03/03 04:35:27;;;;;;;19.33;14.07;;;;;;;0.64;100.00;102517.53;5076946;28;20346;-36
2023/03/03 04:37:53;;;;;;;18.17;14.00;;;;;;;0.62;100.00;102519.47;5075991;28;20127;-36
2023/03/03 04:40:18;;;;;;;19.23;13.98;;;;;;;0.64;100.00;102512.22;5076809;28;20043;-36
2023/03/03 04:42:44;;;;;;;18.95;13.88;;;;;;;0.65;100.00;102516.56;5075807;28;20024;-36
2023/03/03 04:45:09;;;;;;;18.60;13.77;;;;;;;0.64;100.00;102501.56;5076451;28;20031;-36
2023/03/03 04:47:35;;;;;;;18.92;13.95;;;;;;;0.71;100.00;102516.06;5075840;28;20343;-34
2023/03/03 04:50:00;;;;;;;21.63;15.20;;;;;;;0.70;100.00;102516.19;5075819;28;20100;-35
2023/03/03 04:52:26;;;;;;;20.43;14.40;;;;;;;0.71;100.00;102526.72;5075661;28;20032;-35
2023/03/03 04:54:51;;;;;;;19.42;14.02;;;;;;;0.79;100.00;102525.25;5076530;28;20032;-35
2023/03/03 04:57:16;;;;;;;21.77;15.50;;;;;;;0.78;100.00;102508.41;5075399;28;20017;-35
2023/03/03 04:59:42;;;;;;;21.53;16.20;;;;;;;0.66;100.00;102504.94;5075778;28;20020;-35
2023/03/03 05:02:07;;;;;;;18.52;14.15;;;;;;;0.60;100.00;102492.13;5076388;28;20097;-35
2023/03/03 05:04:33;;;;;;;21.77;14.30;;;;;;;0.79;100.00;102517.25;5076084;28;20029;-35
2023/03/03 05:06:58;;;;;;;20.55;14.55;;;;;;;0.72;100.00;102525.72;5075485;28;20025;-35
2023/03/03 05:09:24;;;;;;;18.87;13.73;;;;;;;0.72;100.00;102527.56;5075124;28;20021;-35
2023/03/03 05:11:49;;;;;;;22.97;15.10;;;;;;;0.66;100.00;102518.25;5075030;28;20032;-35
2023/03/03 05:14:15;;;;;;;18.77;13.17;;;;;;;0.73;100.00;102531.91;5075571;28;20312;-35
2023/03/03 05:16:40;;;;;;;21.03;14.97;;;;;;;0.72;100.00;102527.56;5075013;28;20024;-35
2023/03/03 05:19:06;;;;;;;20.10;14.70;;;;;;;0.76;100.00;102529.84;5075340;28;20368;-35
2023/03/03 05:21:31;;;;;;;19.73;14.43;;;;;;;0.79;100.00;102522.59;5074994;28;20032;-35
2023/03/03 05:23:57;;;;;;;19.90;13.73;;;;;;;0.78;100.00;102527.03;5075578;28;20107;-35
2023/03/03 05:26:22;;;;;;;18.90;13.93;;;;;;;0.84;100.00;102528.38;5075504;28;20029;-35
2023/03/03 05:28:47;;;;;;;20.77;14.80;;;;;;;0.75;100.00;102532.63;5075120;28;20519;-34
2023/03/03 05:31:13;;;;;;;20.63;15.00;;;;;;;0.71;100.00;102526.72;5075440;28;20480;-36
2023/03/03 05:33:38;;;;;;;20.33;14.47;;;;;;;0.63;100.00;102504.34;5074673;28;20358;-35
2023/03/03 05:36:03;;;;;;;21.57;14.70;;;;;;;0.76;100.00;102529.00;5075743;28;20095;-35
2023/03/03 05:38:29;;;;;;;20.98;14.98;;;;;;;0.75;100.00;102525.50;5074715;28;20016;-35
2023/03/03 05:40:55;;;;;;;22.03;14.87;;;;;;;0.70;100.00;102509.03;5075017;28;20021;-35
2023/03/03 05:43:20;;;;;;;19.85;14.75;;;;;;;0.84;100.00;102529.22;5074693;28;20453;-35
2023/03/03 05:45:46;;;;;;;20.33;13.77;;;;;;;0.96;100.00;102538.00;5074677;28;20028;-35
2023/03/03 05:48:11;;;;;;;21.07;15.23;;;;;;;0.94;100.00;102532.81;5073649;28;20047;-35
2023/03/03 05:50:37;;;;;;;21.40;14.57;;;;;;;0.95;100.00;102531.84;5074950;28;20032;-35
2023/03/03 05:53:03;;;;;;;;;;;;;;;1.00;100.00;102539.44;5074909;28;20035;-35
2023/03/03 05:55:28;;;;;;;23.65;15.50;;;;;;;0.96;100.00;102538.00;5075059;28;19904;-35
2023/03/03 05:57:54;;;;;;;22.90;17.07;;;;;;;0.94;100.00;102538.16;5074949;28;20035;-35
2023/03/03 06:00:20;;;;;;;20.55;14.25;;;;;;;0.85;100.00;102525.59;5074951;28;20024;-35
2023/03/03 06:02:48;;;;;;;21.17;14.45;;;;;;;0.94;100.00;102539.97;5074506;28;20044;-35
2023/03/03 06:05:14;;;;;;;23.45;14.95;;;;;;;0.87;100.00;102538.75;5074589;28;20021;-35
2023/03/03 06:07:39;;;;;;;22.23;14.80;;;;;;;0.88;100.00;102538.66;5074266;28;20463;-35
2023/03/03 06:10:05;;;;;;;23.63;15.83;;;;;;;0.92;100.00;102540.06;5073902;28;20077;-35
2023/03/03 06:12:31;;;;;;;23.02;15.05;;;;;;;0.96;100.00;102543.34;5074714;28;20034;-35
2023/03/03 06:14:56;;;;;;;22.87;14.73;;;;;;;0.98;100.00;102552.91;5074046;28;20103;-35
2023/03/03 06:17:22;;;;;;;22.23;15.57;;;;;;;0.91;100.00;102542.88;5073796;28;20692;-35
2023/03/03 06:19:50;;;;;;;21.87;14.97;;;;;;;0.95;100.00;102550.50;5074103;28;20023;-35
2023/03/03 06:22:15;;;;;;;21.08;14.57;;;;;;;0.97;100.00;102558.34;5074229;28;20048;-35
2023/03/03 06:24:41;;;;;;;21.87;14.53;;;;;;;0.93;100.00;102559.59;5073997;28;20058;-36
2023/03/03 06:27:06;;;;;;;22.77;15.90;;;;;;;0.88;100.00;102556.44;5074230;28;20024;-36
2023/03/03 06:29:32;;;;;;;22.70;15.03;;;;;;;0.92;100.00;102557.88;5073873;28;20025;-35
2023/03/03 06:31:57;;;;;;;24.80;16.30;;;;;;;0.90;100.00;102567.81;5074205;28;20024;-35
2023/03/03 06:34:22;;;;;;;24.60;15.03;;;;;;;0.91;100.00;102567.69;5073617;28;20099;-35
2023/03/03 06:36:48;;;;;;;20.53;15.03;;;;;;;0.80;100.00;102537.59;5073452;28;20106;-35
2023/03/03 06:39:14;;;;;;;22.13;14.55;;;;;;;0.92;100.00;102572.03;5073533;28;20025;-35
2023/03/03 06:41:39;;;;;;;23.85;15.27;;;;;;;0.93;100.00;102576.41;5073754;28;20028;-35
2023/03/03 06:44:04;;;;;;;21.43;14.67;;;;;;;0.91;100.00;102582.81;5074138;28;20020;-35
2023/03/03 06:46:30;;;;;;;22.97;16.00;;;;;;;0.89;100.00;102590.94;5073474;28;20056;-35
2023/03/03 06:48:55;;;;;;;21.57;15.00;;;;;;;0.92;100.00;102588.03;5073900;28;20024;-35
2023/03/03 06:51:25;;;;;;;24.43;14.67;;;;;;;0.86;100.00;102577.88;5074049;28;20131;-35
2023/03/03 06:53:54;;;;;;;22.80;15.25;;;;;;;0.88;100.00;102596.38;5073961;28;20417;-35
2023/03/03 06:56:22;;;;;;;22.08;14.27;;;;;;;0.82;100.00;102578.25;5073644;28;20074;-35
2023/03/03 06:58:48;;;;;;;23.80;15.48;;;;;;;0.92;100.00;102601.34;5073325;28;20028;-35
2023/03/03 07:01:16;;;;;;;23.70;15.93;;;;;;;0.93;100.00;102600.41;5073847;28;20051;-35
2023/03/03 07:03:42;;;;;;;23.20;13.40;;;;;;;0.92;100.00;102598.69;5073875;28;20470;-35
2023/03/03 07:06:20;;;;;;;18.70;13.30;;;;;;;0.97;100.00;102599.16;5073825;28;20052;-35
2023/03/03 07:08:45;;;;;;;22.33;14.20;;;;;;;0.99;100.00;102591.03;5073221;28;20100;-35
2023/03/03 07:11:16;;;;;;;19.67;13.67;;;;;;;1.06;100.00;102602.88;5073542;28;20154;-36
2023/03/03 07:13:49;;;;;;;20.45;13.20;;;;;;;0.97;100.00;102598.31;5073465;28;20033;-36
2023/03/03 07:16:15;;;;;;;21.85;14.32;;;;;;;1.10;100.00;102599.00;5073518;28;20024;-36
2023/03/03 07:19:00;;;;;;;22.70;15.43;;;;;;;1.11;100.00;102611.34;5073632;28;20111;-36
2023/03/03 07:21:36;;;;;;;22.52;14.88;;;;;;;1.04;100.00;102599.50;5074091;28;20036;-36
2023/03/03 07:24:27;;;;;;;26.48;15.07;;;;;;;1.12;100.00;102605.03;5076208;28;20016;-36
2023/03/03 07:27:05;;;;;;;23.50;14.40;;;;;;;1.17;100.00;102607.31;5077571;28;20096;-35
2023/03/03 07:29:32;;;;;;;22.17;14.90;;;;;;;1.12;100.00;102602.38;5077473;28;20079;-35
2023/03/03 07:32:00;;;;;;;21.20;14.52;;;;;;;1.19;100.00;102624.88;5077554;28;20031;-35
2023/03/03 07:34:34;;;;;;;21.90;14.63;;;;;;;1.13;100.00;102619.22;5077712;28;20024;-36
2023/03/03 07:37:37;;;;;;;21.08;13.98;;;;;;;1.16;100.00;102624.28;5077105;28;20445;-35
2023/03/03 07:40:27;;;;;;;24.10;15.10;;;;;;;1.18;100.00;102619.69;5067124;28;20036;-36
2023/03/03 07:42:52;;;;;;;24.42;14.85;;;;;;;1.14;100.00;102621.75;5077020;28;20102;-35
2023/03/03 07:45:28;;;;;;;23.50;15.37;;;;;;;1.21;100.00;102627.41;5077573;28;20451;-36
2023/03/03 07:48:29;;;;;;;24.25;14.80;;;;;;;1.24;100.00;102633.34;5077455;28;20032;-36
2023/03/03 07:51:01;;;;;;;20.90;14.88;;;;;;;1.22;100.00;102639.75;5057631;28;20047;-35
2023/03/03 07:53:34;;;;;;;21.58;14.20;;;;;;;1.29;100.00;102639.16;5077126;28;20356;-35
2023/03/03 07:56:00;;;;;;;24.65;14.07;;;;;;;1.34;100.00;102644.09;5077611;28;20021;-35
2023/03/03 07:58:36;;;;;;;;;;;;;;;1.44;100.00;102639.69;5077138;28;20031;-36
2023/03/03 08:01:38;;;;;;;24.75;15.90;;;;;;;1.43;100.00;102642.50;5077487;28;20244;-35
2023/03/03 08:04:14;;;;;;;22.75;14.98;;;;;;;1.27;100.00;102633.13;5076931;28;20473;-35
2023/03/03 08:07:01;;;;;;;22.65;14.55;;;;;;;1.42;100.00;102647.00;5076332;28;20048;-35
2023/03/03 08:09:34;;;;;;;19.45;13.23;;;;;;;1.39;100.00;102635.72;5077186;28;20020;-36
2023/03/03 08:12:05;;;;;;;21.48;13.93;;;;;;;1.46;100.00;102650.22;5076536;28;20111;-36
2023/03/03 08:14:34;;;;;;;18.73;12.95;;;;;;;1.42;100.00;102652.31;5076406;28;20426;-36
2023/03/03 08:16:59;;;;;;;22.58;14.60;;;;;;;1.19;100.00;102624.88;5076267;28;20103;-36
2023/03/03 08:19:26;;;;;;;19.23;13.03;;;;;;;1.41;100.00;102657.75;5076400;28;20108;-36
2023/03/03 08:21:58;;;;;;;20.65;12.75;;;;;;;1.42;100.00;102662.16;5076264;28;20283;-36
2023/03/03 08:24:24;;;;;;;18.98;12.32;;;;;;;1.44;100.00;102660.19;5076266;28;20436;-35
2023/03/03 08:26:49;;;;;;;18.67;13.63;;;;;;;1.45;100.00;102657.38;5076247;28;20020;-35
2023/03/03 08:29:15;;;;;;;19.85;12.88;;;;;;;1.50;100.00;102667.66;5076523;28;20502;-35
2023/03/03 08:31:40;;;;;;;17.30;11.83;;;;;;;1.51;100.00;102666.69;5076503;28;20033;-35
2023/03/03 08:34:05;;;;;;;19.53;12.20;;;;;;;1.41;100.00;102669.25;5075613;28;20025;-35
2023/03/03 08:36:31;;;;;;;16.63;11.97;;;;;;;1.42;100.00;102676.31;5076061;28;20101;-36
2023/03/03 08:38:56;;;;;;;16.03;12.07;;;;;;;1.35;100.00;102666.28;5075690;28;20056;-35
2023/03/03 08:41:21;;;;;;;15.60;10.87;;;;;;;1.33;100.00;102662.91;5076206;28;20013;-36
2023/03/03 08:43:47;;;;;;;15.00;10.57;;;;;;;1.45;100.00;102686.72;5075992;28;20475;-36
2023/03/03 08:46:12;;;;;;;13.50;8.90;;;;;;;1.54;100.00;102682.44;5076709;28;20514;-36
2023/03/03 08:48:37;;;;;;;11.47;8.37;;;;;;;1.46;100.00;102680.41;5075597;28;20095;-36
2023/03/03 08:51:03;;;;;;;14.30;9.13;;;;;;;1.56;100.00;102685.81;5076088;28;20469;-36
2023/03/03 08:53:29;;;;;;;15.02;10.07;;;;;;;1.52;100.00;102676.41;5075457;28;20102;-35
2023/03/03 08:55:55;;;;;;;13.80;10.02;;;;;;;1.64;100.00;102680.69;5075696;28;20025;-35
2023/03/03 08:58:20;;;;;;;12.10;7.88;;;;;;;1.76;100.00;102687.69;5075640;28;20017;-35
2023/03/03 09:00:46;;;;;;;12.40;8.43;;;;;;;1.65;100.00;102671.72;5075542;28;20020;-35
2023/03/03 09:03:11;;;;;;;12.98;9.00;;;;;;;1.82;100.00;102688.16;5075542;28;20079;-35
2023/03/03 09:05:39;;;;;;;11.57;7.97;;;;;;;1.92;100.00;102679.25;5075826;28;20028;-35
2023/03/03 09:08:05;;;;;;;12.40;8.45;;;;;;;2.02;100.00;102690.84;5076185;28;20266;-35
2023/03/03 09:10:31;;;;;;;;;;;;;;;2.12;100.00;102692.72;5076126;28;20025;-35
2023/03/03 09:13:00;;;;;;;14.80;8.15;;;;;;;2.06;100.00;102689.59;5075905;28;20255;-35
2023/03/03 09:15:33;;;;;;;13.25;9.35;;;;;;;2.09;100.00;102692.97;5075026;28;20032;-35
2023/03/03 09:18:12;;;;;;;12.10;8.20;;;;;;;2.19;100.00;102696.53;5075161;28;20029;-35
2023/03/03 09:20:38;;;;;;;14.05;8.90;;;;;;;2.22;100.00;102690.97;5075495;28;20524;-35
2023/03/03 09:23:22;;;;;;;11.23;8.13;;;;;;;2.36;100.00;102690.63;5075029;28;20025;-35
2023/03/03 09:25:49;;;;;;;11.07;7.78;;;;;;;2.28;100.00;102680.59;5075154;28;20032;-35
2023/03/03 09:28:27;;;;;;;10.25;8.15;;;;;;;2.23;100.00;102680.13;5075272;28;20020;-35
2023/03/03 09:30:56;;;;;;;10.95;7.53;;;;;;;2.29;100.00;102690.31;5074683;28;20027;-36
2023/03/03 09:33:36;;;;;;;11.40;7.82;;;;;;;2.30;100.00;102694.66;5075715;28;20112;-35
2023/03/03 09:36:18;;;;;;;13.40;8.52;;;;;;;2.33;100.00;102682.88;5075419;28;20070;-35
2023/03/03 09:38:44;;;;;;;10.20;7.50;;;;;;;2.42;100.00;102683.91;5074490;28;20084;-35
2023/03/03 09:41:35;;;;;;;11.10;8.18;;;;;;;2.50;100.00;102703.63;5075560;28;20064;-35
2023/03/03 09:44:15;;;;;;;12.45;8.82;;;;;;;2.53;100.00;102706.00;5075523;28;20032;-35
2023/03/03 09:47:02;;;;;;;12.20;8.70;;;;;;;2.49;100.00;102709.97;5074138;28;20081;-35
2023/03/03 09:49:38;;;;;;;11.40;8.20;;;;;;;2.46;100.00;102710.22;5074916;28;20016;-36
2023/03/03 09:52:09;;;;;;;9.98;7.68;;;;;;;2.38;100.00;102693.16;5074238;28;20472;-36
2023/03/03 09:54:55;;;;;;;9.07;7.15;;;;;;;2.44;100.00;102711.31;5074831;28;20020;-36
2023/03/03 09:57:34;;;;;;;10.07;7.57;;;;;;;2.45;100.00;102699.66;5074733;28;20094;-36
2023/03/03 10:00:14;;;;;;;10.57;7.45;;;;;;;2.46;100.00;102709.38;5074993;28;20018;-36
2023/03/03 10:02:55;;;;;;;10.73;7.82;;;;;;;2.54;100.00;102712.22;5074932;28;20051;-36
2023/03/03 10:05:44;;;;;;;11.30;7.97;;;;;;;2.47;100.00;102713.72;5074906;28;20027;-36
2023/03/03 10:08:15;;;;;;;10.15;8.18;;;;;;;2.32;100.00;102702.53;5074515;28;20444;-36
2023/03/03 10:10:56;;;;;;;10.60;7.40;;;;;;;2.55;100.00;102708.56;5074588;28;20059;-35
2023/03/03 10:14:03;;;;;;;9.43;6.18;;;;;;;2.61;100.00;102693.84;5074163;28;20024;-35
2023/03/03 10:16:39;;;;;;;10.02;6.65;;;;;;;2.71;100.00;102697.41;5074701;28;20016;-35
2023/03/03 10:19:35;;;;;;;9.20;6.45;;;;;;;2.84;100.00;102711.38;5073877;28;20033;-35
2023/03/03 10:22:28;;;;;;;10.65;7.28;;;;;;;2.78;100.00;102706.56;5074241;28;20128;-35
2023/03/03 10:25:12;;;;;;;9.13;6.72;;;;;;;2.92;100.00;102719.56;5073330;28;20021;-35
2023/03/03 10:27:59;;;;;;;11.02;7.88;;;;;;;2.88;100.00;102711.94;5074794;28;20356;-35
2023/03/03 10:31:10;;;;;;;11.32;7.20;;;;;;;3.03;100.00;102715.97;5074201;28;20448;-35
2023/03/03 10:33:41;;;;;;;10.35;7.18;;;;;;;3.14;100.00;102715.00;5012068;28;20116;-35
2023/03/03 10:36:15;;;;;;;11.00;7.60;;;;;;;3.15;100.00;102709.50;5062952;28;20116;-35
2023/03/03 10:39:17;;;;;;;13.13;9.18;;;;;;;3.16;100.00;102721.03;5074384;28;20031;-35
2023/03/03 10:41:52;;;;;;;12.68;8.20;;;;;;;3.17;100.00;102718.22;5074229;28;20060;-35
2023/03/03 10:44:32;;;;;;;11.68;8.27;;;;;;;3.16;100.00;102702.31;5072800;28;20455;-35
2023/03/03 10:47:23;;;;;;;9.30;6.90;;;;;;;3.40;100.00;102710.81;5073758;28;20032;-35
2023/03/03 10:50:20;;;;;;;8.43;5.95;;;;;;;3.51;100.00;102715.19;5073983;28;20024;-35
2023/03/03 10:52:55;;;;;;;11.98;8.10;;;;;;;3.43;100.00;102713.22;5074480;28;20028;-35
2023/03/03 10:56:00;;;;;;;11.40;7.82;;;;;;;3.44;100.00;102717.59;5074219;28;20016;-35
2023/03/03 10:58:38;;;;;;;11.52;8.23;;;;;;;3.36;100.00;102704.91;5072722;28;20058;-35
2023/03/03 11:01:15;;;;;;;11.10;8.02;;;;;;;3.42;100.00;102710.72;5074232;28;20033;-35
2023/03/03 11:03:58;;;;;;;11.93;7.28;;;;;;;3.59;100.00;102707.34;5074398;28;20399;-36
2023/03/03 11:06:53;;;;;;;12.65;7.43;;;;;;;3.70;100.00;102717.03;5073842;28;20052;-36
2023/03/03 11:09:43;;;;;;;9.80;7.05;;;;;;;3.74;100.00;102711.28;5073533;28;20074;-36
2023/03/03 11:12:27;;;;;;;10.00;7.10;;;;;;;3.84;100.00;102701.41;5073506;28;20025;-36
2023/03/03 11:15:25;;;;;;;12.73;7.13;;;;;;;3.97;100.00;102709.16;5073800;28;20031;-36
2023/03/03 11:18:15;;;;;;;11.07;7.25;;;;;;;4.08;100.00;102713.53;5073746;28;20021;-36
2023/03/03 11:21:04;;;;;;;8.55;6.30;;;;;;;4.23;100.00;102708.56;5073963;28;20035;-36
2023/03/03 11:23:58;;;;;;;8.85;6.57;;;;;;;4.29;100.00;102699.94;5073977;28;20056;-36
2023/03/03 11:26:45;;;;;;;8.13;5.72;;;;;;;4.36;100.00;102701.91;5072335;28;20116;-36
2023/03/03 11:29:34;;;;;;;9.43;7.20;;;;;;;4.11;100.00;102676.59;5073358;28;20207;-36
2023/03/03 11:32:15;;;;;;;7.40;5.60;;;;;;;4.45;100.00;102688.66;5073922;28;20028;-36